sensor_id;sensor_type;location;lat;lon;timestamp;temperature;humidity
18753;DHT22;9505;50.882;5.350;2022-11-12T00:00:44;3.60;99.90
18753;DHT22;9505;50.882;5.350;2022-11-12T00:03:10;3.60;99.90
18753;DHT22;9505;50.882;5.350;2022-11-12T00:05:36;3.60;99.90
18753;DHT22;9505;50.882;5.350;2022-11-12T00:08:02;3.60;99.90
18753;DHT22;9505;50.882;5.350;2022-11-12T00:10:28;3.60;99.90
18753;DHT22;9505;50.882;5.350;2022-11-12T00:12:54;3.60;99.90
18753;DHT22;9505;50.882;5.350;2022-11-12T00:15:20;3.50;99.90
18753;DHT22;9505;50.882;5.350;2022-11-12T00:17:45;3.50;99.90
18753;DHT22;9505;50.882;5.350;2022-11-12T00:20:11;3.50;99.90
18753;DHT22;9505;50.882;5.350;2022-11-12T00:22:37;3.50;99.90
18753;DHT22;9505;50.882;5.350;2022-11-12T00:25:03;3.50;99.90
18753;DHT22;9505;50.882;5.350;2022-11-12T00:27:31;3.60;99.90
18753;DHT22;9505;50.882;5.350;2022-11-12T00:29:56;3.50;99.90
18753;DHT22;9505;50.882;5.350;2022-11-12T00:32:22;3.50;99.90
18753;DHT22;9505;50.882;5.350;2022-11-12T00:34:47;3.50;99.90
18753;DHT22;9505;50.882;5.350;2022-11-12T00:37:13;3.50;99.90
18753;DHT22;9505;50.882;5.350;2022-11-12T00:39:39;3.40;99.90
18753;DHT22;9505;50.882;5.350;2022-11-12T00:42:04;3.40;99.90
18753;DHT22;9505;50.882;5.350;2022-11-12T00:44:30;3.40;99.90
18753;DHT22;9505;50.882;5.350;2022-11-12T00:46:56;3.30;99.90
18753;DHT22;9505;50.882;5.350;2022-11-12T00:49:21;3.30;99.90
18753;DHT22;9505;50.882;5.350;2022-11-12T00:51:47;3.20;99.90
18753;DHT22;9505;50.882;5.350;2022-11-12T00:54:13;3.30;99.90
18753;DHT22;9505;50.882;5.350;2022-11-12T00:56:39;3.20;99.90
18753;DHT22;9505;50.882;5.350;2022-11-12T00:59:05;3.20;99.90
18753;DHT22;9505;50.882;5.350;2022-11-12T01:01:30;3.20;99.90
18753;DHT22;9505;50.882;5.350;2022-11-12T01:03:57;3.20;99.90
18753;DHT22;9505;50.882;5.350;2022-11-12T01:06:23;3.20;99.90
18753;DHT22;9505;50.882;5.350;2022-11-12T01:08:50;3.10;99.90
18753;DHT22;9505;50.882;5.350;2022-11-12T01:11:17;3.10;99.90
18753;DHT22;9505;50.882;5.350;2022-11-12T01:13:45;3.10;99.90
18753;DHT22;9505;50.882;5.350;2022-11-12T01:16:19;3.10;99.90
18753;DHT22;9505;50.882;5.350;2022-11-12T01:18:46;3.00;99.90
18753;DHT22;9505;50.882;5.350;2022-11-12T01:21:12;2.90;99.90
18753;DHT22;9505;50.882;5.350;2022-11-12T01:23:40;2.90;99.90
18753;DHT22;9505;50.882;5.350;2022-11-12T01:26:08;2.90;99.90
18753;DHT22;9505;50.882;5.350;2022-11-12T01:28:34;2.90;99.90
18753;DHT22;9505;50.882;5.350;2022-11-12T01:31:24;2.90;99.90
18753;DHT22;9505;50.882;5.350;2022-11-12T01:33:53;2.90;99.90
18753;DHT22;9505;50.882;5.350;2022-11-12T01:36:20;2.90;99.90
18753;DHT22;9505;50.882;5.350;2022-11-12T01:38:46;2.80;99.90
18753;DHT22;9505;50.882;5.350;2022-11-12T01:41:16;2.80;99.90
18753;DHT22;9505;50.882;5.350;2022-11-12T01:43:43;2.80;99.90
18753;DHT22;9505;50.882;5.350;2022-11-12T01:46:25;2.80;99.90
18753;DHT22;9505;50.882;5.350;2022-11-12T01:48:57;2.80;99.90
18753;DHT22;9505;50.882;5.350;2022-11-12T01:51:29;2.70;99.90
18753;DHT22;9505;50.882;5.350;2022-11-12T01:53:59;2.80;99.90
18753;DHT22;9505;50.882;5.350;2022-11-12T01:56:29;2.80;99.90
18753;DHT22;9505;50.882;5.350;2022-11-12T01:59:00;2.80;99.90
18753;DHT22;9505;50.882;5.350;2022-11-12T02:01:27;2.90;99.90
18753;DHT22;9505;50.882;5.350;2022-11-12T02:03:52;2.90;99.90
18753;DHT22;9505;50.882;5.350;2022-11-12T02:06:18;2.90;99.90
18753;DHT22;9505;50.882;5.350;2022-11-12T02:08:45;2.90;99.90
18753;DHT22;9505;50.882;5.350;2022-11-12T02:11:13;2.90;99.90
18753;DHT22;9505;50.882;5.350;2022-11-12T02:13:40;2.90;99.90
18753;DHT22;9505;50.882;5.350;2022-11-12T02:16:31;2.90;99.90
18753;DHT22;9505;50.882;5.350;2022-11-12T02:18:58;2.90;99.90
18753;DHT22;9505;50.882;5.350;2022-11-12T02:21:24;2.90;99.90
18753;DHT22;9505;50.882;5.350;2022-11-12T02:26:34;2.90;99.90
18753;DHT22;9505;50.882;5.350;2022-11-12T02:29:01;2.90;99.90
18753;DHT22;9505;50.882;5.350;2022-11-12T02:31:28;2.90;99.90
18753;DHT22;9505;50.882;5.350;2022-11-12T02:33:53;2.90;99.90
18753;DHT22;9505;50.882;5.350;2022-11-12T02:36:19;2.90;99.90
18753;DHT22;9505;50.882;5.350;2022-11-12T02:38:45;2.90;99.90
18753;DHT22;9505;50.882;5.350;2022-11-12T02:41:10;2.90;99.90
18753;DHT22;9505;50.882;5.350;2022-11-12T02:43:36;2.80;99.90
18753;DHT22;9505;50.882;5.350;2022-11-12T02:46:02;2.90;99.90
18753;DHT22;9505;50.882;5.350;2022-11-12T02:48:27;2.90;99.90
18753;DHT22;9505;50.882;5.350;2022-11-12T02:50:53;2.80;99.90
18753;DHT22;9505;50.882;5.350;2022-11-12T02:53:18;2.80;99.90
18753;DHT22;9505;50.882;5.350;2022-11-12T02:55:44;2.80;99.90
18753;DHT22;9505;50.882;5.350;2022-11-12T02:58:09;2.80;99.90
18753;DHT22;9505;50.882;5.350;2022-11-12T03:00:35;2.80;99.90
18753;DHT22;9505;50.882;5.350;2022-11-12T03:03:00;2.90;99.90
18753;DHT22;9505;50.882;5.350;2022-11-12T03:05:32;2.90;99.90
18753;DHT22;9505;50.882;5.350;2022-11-12T03:08:01;2.90;99.90
18753;DHT22;9505;50.882;5.350;2022-11-12T03:10:28;2.90;99.90
18753;DHT22;9505;50.882;5.350;2022-11-12T03:12:56;2.90;99.90
18753;DHT22;9505;50.882;5.350;2022-11-12T03:15:22;2.90;99.90
18753;DHT22;9505;50.882;5.350;2022-11-12T03:17:47;2.80;99.90
18753;DHT22;9505;50.882;5.350;2022-11-12T03:20:13;2.80;99.90
18753;DHT22;9505;50.882;5.350;2022-11-12T03:22:39;2.80;99.90
18753;DHT22;9505;50.882;5.350;2022-11-12T03:25:05;2.80;99.90
18753;DHT22;9505;50.882;5.350;2022-11-12T03:27:31;2.80;99.90
18753;DHT22;9505;50.882;5.350;2022-11-12T03:29:57;2.80;99.90
18753;DHT22;9505;50.882;5.350;2022-11-12T03:32:23;2.80;99.90
18753;DHT22;9505;50.882;5.350;2022-11-12T03:34:48;2.70;99.90
18753;DHT22;9505;50.882;5.350;2022-11-12T03:37:14;2.70;99.90
18753;DHT22;9505;50.882;5.350;2022-11-12T03:39:39;2.70;99.90
18753;DHT22;9505;50.882;5.350;2022-11-12T03:42:05;2.70;99.90
18753;DHT22;9505;50.882;5.350;2022-11-12T03:44:31;2.70;99.90
18753;DHT22;9505;50.882;5.350;2022-11-12T03:46:56;2.70;99.90
18753;DHT22;9505;50.882;5.350;2022-11-12T03:49:22;2.70;99.90
18753;DHT22;9505;50.882;5.350;2022-11-12T03:51:48;2.70;99.90
18753;DHT22;9505;50.882;5.350;2022-11-12T03:54:13;2.70;99.90
18753;DHT22;9505;50.882;5.350;2022-11-12T03:56:39;2.70;99.90
18753;DHT22;9505;50.882;5.350;2022-11-12T03:59:05;2.70;99.90
18753;DHT22;9505;50.882;5.350;2022-11-12T04:01:31;2.70;99.90
18753;DHT22;9505;50.882;5.350;2022-11-12T04:03:56;2.60;99.90
18753;DHT22;9505;50.882;5.350;2022-11-12T04:06:22;2.60;99.90
18753;DHT22;9505;50.882;5.350;2022-11-12T04:09:06;2.60;99.90
18753;DHT22;9505;50.882;5.350;2022-11-12T04:11:32;2.50;99.90
18753;DHT22;9505;50.882;5.350;2022-11-12T04:13:57;2.50;99.90
18753;DHT22;9505;50.882;5.350;2022-11-12T04:16:24;2.50;99.90
18753;DHT22;9505;50.882;5.350;2022-11-12T04:19:11;2.50;99.90
18753;DHT22;9505;50.882;5.350;2022-11-12T04:22:03;2.50;99.90
18753;DHT22;9505;50.882;5.350;2022-11-12T04:24:32;2.50;99.90
18753;DHT22;9505;50.882;5.350;2022-11-12T04:27:19;2.50;99.90
18753;DHT22;9505;50.882;5.350;2022-11-12T04:29:46;2.40;99.90
18753;DHT22;9505;50.882;5.350;2022-11-12T04:32:32;2.40;99.90
18753;DHT22;9505;50.882;5.350;2022-11-12T04:34:58;2.40;99.90
18753;DHT22;9505;50.882;5.350;2022-11-12T04:37:26;2.40;99.90
18753;DHT22;9505;50.882;5.350;2022-11-12T04:39:52;2.40;99.90
18753;DHT22;9505;50.882;5.350;2022-11-12T04:42:18;2.50;99.90
18753;DHT22;9505;50.882;5.350;2022-11-12T04:45:06;2.40;99.90
18753;DHT22;9505;50.882;5.350;2022-11-12T04:47:37;2.40;99.90
18753;DHT22;9505;50.882;5.350;2022-11-12T04:50:06;2.40;99.90
18753;DHT22;9505;50.882;5.350;2022-11-12T04:52:32;2.50;99.90
18753;DHT22;9505;50.882;5.350;2022-11-12T04:54:58;2.50;99.90
18753;DHT22;9505;50.882;5.350;2022-11-12T04:57:24;2.50;99.90
18753;DHT22;9505;50.882;5.350;2022-11-12T04:59:50;2.40;99.90
18753;DHT22;9505;50.882;5.350;2022-11-12T05:02:16;2.40;99.90
18753;DHT22;9505;50.882;5.350;2022-11-12T05:04:42;2.40;99.90
18753;DHT22;9505;50.882;5.350;2022-11-12T05:07:08;2.40;99.90
18753;DHT22;9505;50.882;5.350;2022-11-12T05:09:34;2.40;99.90
18753;DHT22;9505;50.882;5.350;2022-11-12T05:12:00;2.40;99.90
18753;DHT22;9505;50.882;5.350;2022-11-12T05:14:25;2.30;99.90
18753;DHT22;9505;50.882;5.350;2022-11-12T05:16:51;2.30;99.90
18753;DHT22;9505;50.882;5.350;2022-11-12T05:19:17;2.30;99.90
18753;DHT22;9505;50.882;5.350;2022-11-12T05:21:44;2.30;99.90
18753;DHT22;9505;50.882;5.350;2022-11-12T05:24:28;2.30;99.90
18753;DHT22;9505;50.882;5.350;2022-11-12T05:26:54;2.30;99.90
18753;DHT22;9505;50.882;5.350;2022-11-12T05:29:19;2.30;99.90
18753;DHT22;9505;50.882;5.350;2022-11-12T05:31:45;2.30;99.90
18753;DHT22;9505;50.882;5.350;2022-11-12T05:34:11;2.30;99.90
18753;DHT22;9505;50.882;5.350;2022-11-12T05:36:36;2.30;99.90
18753;DHT22;9505;50.882;5.350;2022-11-12T05:39:02;2.30;99.90
18753;DHT22;9505;50.882;5.350;2022-11-12T05:41:28;2.20;99.90
18753;DHT22;9505;50.882;5.350;2022-11-12T05:43:54;2.30;99.90
18753;DHT22;9505;50.882;5.350;2022-11-12T05:46:19;2.30;99.90
18753;DHT22;9505;50.882;5.350;2022-11-12T05:48:45;2.30;99.90
18753;DHT22;9505;50.882;5.350;2022-11-12T05:51:11;2.30;99.90
18753;DHT22;9505;50.882;5.350;2022-11-12T05:53:38;2.30;99.90
18753;DHT22;9505;50.882;5.350;2022-11-12T05:56:05;2.30;99.90
18753;DHT22;9505;50.882;5.350;2022-11-12T05:58:30;2.30;99.90
18753;DHT22;9505;50.882;5.350;2022-11-12T06:00:57;2.30;99.90
18753;DHT22;9505;50.882;5.350;2022-11-12T06:03:23;2.30;99.90
18753;DHT22;9505;50.882;5.350;2022-11-12T06:05:49;2.30;99.90
18753;DHT22;9505;50.882;5.350;2022-11-12T06:08:15;2.30;99.90
18753;DHT22;9505;50.882;5.350;2022-11-12T06:10:41;2.30;99.90
18753;DHT22;9505;50.882;5.350;2022-11-12T06:13:07;2.30;99.90
18753;DHT22;9505;50.882;5.350;2022-11-12T06:15:33;2.30;99.90
18753;DHT22;9505;50.882;5.350;2022-11-12T06:17:58;2.30;99.90
18753;DHT22;9505;50.882;5.350;2022-11-12T06:20:24;2.30;99.90
18753;DHT22;9505;50.882;5.350;2022-11-12T06:22:50;2.30;99.90
18753;DHT22;9505;50.882;5.350;2022-11-12T06:25:16;2.30;99.90
18753;DHT22;9505;50.882;5.350;2022-11-12T06:27:41;2.20;99.90
18753;DHT22;9505;50.882;5.350;2022-11-12T06:30:08;2.20;99.90
18753;DHT22;9505;50.882;5.350;2022-11-12T06:32:34;2.20;99.90
18753;DHT22;9505;50.882;5.350;2022-11-12T06:34:59;2.20;99.90
18753;DHT22;9505;50.882;5.350;2022-11-12T06:37:25;2.20;99.90
18753;DHT22;9505;50.882;5.350;2022-11-12T06:39:51;2.10;99.90
18753;DHT22;9505;50.882;5.350;2022-11-12T06:42:16;2.10;99.90
18753;DHT22;9505;50.882;5.350;2022-11-12T06:44:42;2.10;99.90
18753;DHT22;9505;50.882;5.350;2022-11-12T06:47:08;2.30;99.90
18753;DHT22;9505;50.882;5.350;2022-11-12T06:49:34;2.20;99.90
18753;DHT22;9505;50.882;5.350;2022-11-12T06:51:59;2.20;99.90
18753;DHT22;9505;50.882;5.350;2022-11-12T06:54:25;2.20;99.90
18753;DHT22;9505;50.882;5.350;2022-11-12T06:56:51;2.30;99.90
18753;DHT22;9505;50.882;5.350;2022-11-12T06:59:16;2.30;99.90
18753;DHT22;9505;50.882;5.350;2022-11-12T07:01:42;2.30;99.90
18753;DHT22;9505;50.882;5.350;2022-11-12T07:04:08;2.30;99.90
18753;DHT22;9505;50.882;5.350;2022-11-12T07:06:35;2.30;99.90
18753;DHT22;9505;50.882;5.350;2022-11-12T07:09:02;2.30;99.90
18753;DHT22;9505;50.882;5.350;2022-11-12T07:11:28;2.40;99.90
18753;DHT22;9505;50.882;5.350;2022-11-12T07:13:53;2.40;99.90
18753;DHT22;9505;50.882;5.350;2022-11-12T07:16:19;2.50;99.90
18753;DHT22;9505;50.882;5.350;2022-11-12T07:18:46;2.60;99.90
18753;DHT22;9505;50.882;5.350;2022-11-12T07:21:17;2.60;99.90
18753;DHT22;9505;50.882;5.350;2022-11-12T07:23:44;2.70;99.90
18753;DHT22;9505;50.882;5.350;2022-11-12T07:26:14;2.70;99.90
18753;DHT22;9505;50.882;5.350;2022-11-12T07:28:40;2.70;99.90
18753;DHT22;9505;50.882;5.350;2022-11-12T07:31:09;2.80;99.90
18753;DHT22;9505;50.882;5.350;2022-11-12T07:33:35;2.90;99.90
18753;DHT22;9505;50.882;5.350;2022-11-12T07:36:06;3.00;99.90
18753;DHT22;9505;50.882;5.350;2022-11-12T07:38:34;3.00;99.90
18753;DHT22;9505;50.882;5.350;2022-11-12T07:41:23;3.10;99.90
18753;DHT22;9505;50.882;5.350;2022-11-12T07:43:51;3.30;99.90
18753;DHT22;9505;50.882;5.350;2022-11-12T07:46:22;3.30;99.90
18753;DHT22;9505;50.882;5.350;2022-11-12T07:48:48;3.40;99.90
18753;DHT22;9505;50.882;5.350;2022-11-12T07:51:22;3.40;99.90
18753;DHT22;9505;50.882;5.350;2022-11-12T07:53:49;3.50;99.90
18753;DHT22;9505;50.882;5.350;2022-11-12T07:56:18;3.80;99.90
18753;DHT22;9505;50.882;5.350;2022-11-12T07:58:44;4.00;99.90
18753;DHT22;9505;50.882;5.350;2022-11-12T08:01:32;4.30;99.90
18753;DHT22;9505;50.882;5.350;2022-11-12T08:03:59;4.60;99.90
18753;DHT22;9505;50.882;5.350;2022-11-12T08:06:27;4.70;99.90
18753;DHT22;9505;50.882;5.350;2022-11-12T08:08:56;5.10;99.90
18753;DHT22;9505;50.882;5.350;2022-11-12T08:11:22;5.30;99.90
18753;DHT22;9505;50.882;5.350;2022-11-12T08:13:48;5.50;99.90
18753;DHT22;9505;50.882;5.350;2022-11-12T08:16:14;5.80;99.90
18753;DHT22;9505;50.882;5.350;2022-11-12T08:18:40;6.00;99.90
18753;DHT22;9505;50.882;5.350;2022-11-12T08:21:08;6.20;99.90
18753;DHT22;9505;50.882;5.350;2022-11-12T08:23:34;6.20;99.90
18753;DHT22;9505;50.882;5.350;2022-11-12T08:26:03;6.20;99.90
18753;DHT22;9505;50.882;5.350;2022-11-12T08:28:30;6.20;99.90
18753;DHT22;9505;50.882;5.350;2022-11-12T08:30:56;6.50;99.90
18753;DHT22;9505;50.882;5.350;2022-11-12T08:33:21;6.90;99.90
18753;DHT22;9505;50.882;5.350;2022-11-12T08:35:47;7.40;99.90
18753;DHT22;9505;50.882;5.350;2022-11-12T08:38:13;8.00;99.90
18753;DHT22;9505;50.882;5.350;2022-11-12T08:40:39;8.80;99.90
18753;DHT22;9505;50.882;5.350;2022-11-12T08:43:07;9.50;99.90
18753;DHT22;9505;50.882;5.350;2022-11-12T08:45:39;10.20;99.90
18753;DHT22;9505;50.882;5.350;2022-11-12T08:48:09;11.00;99.90
18753;DHT22;9505;50.882;5.350;2022-11-12T08:50:36;12.00;99.90
18753;DHT22;9505;50.882;5.350;2022-11-12T08:53:09;12.80;99.90
18753;DHT22;9505;50.882;5.350;2022-11-12T08:55:35;13.70;99.90
18753;DHT22;9505;50.882;5.350;2022-11-12T08:58:02;14.40;99.90
18753;DHT22;9505;50.882;5.350;2022-11-12T09:02:54;14.90;99.90
18753;DHT22;9505;50.882;5.350;2022-11-12T09:05:20;14.50;99.90
18753;DHT22;9505;50.882;5.350;2022-11-12T09:07:46;14.00;99.90
18753;DHT22;9505;50.882;5.350;2022-11-12T09:10:11;13.80;99.90
18753;DHT22;9505;50.882;5.350;2022-11-12T09:12:37;13.80;99.90
18753;DHT22;9505;50.882;5.350;2022-11-12T09:15:04;13.80;99.90
18753;DHT22;9505;50.882;5.350;2022-11-12T09:17:30;13.60;99.90
18753;DHT22;9505;50.882;5.350;2022-11-12T09:19:57;13.50;99.90
18753;DHT22;9505;50.882;5.350;2022-11-12T09:22:22;13.60;99.90
18753;DHT22;9505;50.882;5.350;2022-11-12T09:24:48;13.90;99.90
18753;DHT22;9505;50.882;5.350;2022-11-12T09:27:13;14.10;99.90
18753;DHT22;9505;50.882;5.350;2022-11-12T09:29:39;14.20;99.90
18753;DHT22;9505;50.882;5.350;2022-11-12T09:32:04;14.40;99.90
18753;DHT22;9505;50.882;5.350;2022-11-12T09:34:30;14.50;99.90
18753;DHT22;9505;50.882;5.350;2022-11-12T09:36:56;14.50;99.90
18753;DHT22;9505;50.882;5.350;2022-11-12T09:39:21;14.10;99.90
18753;DHT22;9505;50.882;5.350;2022-11-12T09:41:47;13.90;99.90
18753;DHT22;9505;50.882;5.350;2022-11-12T09:44:18;13.90;99.90
18753;DHT22;9505;50.882;5.350;2022-11-12T09:52:00;13.90;99.90
18753;DHT22;9505;50.882;5.350;2022-11-12T09:54:30;14.10;99.90
18753;DHT22;9505;50.882;5.350;2022-11-12T09:56:57;14.50;99.90
18753;DHT22;9505;50.882;5.350;2022-11-12T09:59:27;14.90;99.90
18753;DHT22;9505;50.882;5.350;2022-11-12T10:15:44;16.20;99.90
18753;DHT22;9505;50.882;5.350;2022-11-12T10:21:53;16.80;99.90
18753;DHT22;9505;50.882;5.350;2022-11-12T10:24:22;17.20;99.90
18753;DHT22;9505;50.882;5.350;2022-11-12T10:26:49;17.30;99.90
18753;DHT22;9505;50.882;5.350;2022-11-12T10:29:37;17.50;99.90
18753;DHT22;9505;50.882;5.350;2022-11-12T10:32:10;17.60;99.90
18753;DHT22;9505;50.882;5.350;2022-11-12T10:34:37;17.10;99.90
18753;DHT22;9505;50.882;5.350;2022-11-12T10:39:43;16.80;99.90
18753;DHT22;9505;50.882;5.350;2022-11-12T10:42:16;16.60;99.90
18753;DHT22;9505;50.882;5.350;2022-11-12T10:44:43;16.70;99.90
18753;DHT22;9505;50.882;5.350;2022-11-12T10:47:34;16.70;99.90
18753;DHT22;9505;50.882;5.350;2022-11-12T10:52:35;17.80;99.90
18753;DHT22;9505;50.882;5.350;2022-11-12T10:55:23;18.20;99.90
18753;DHT22;9505;50.882;5.350;2022-11-12T11:03:21;19.20;99.90
18753;DHT22;9505;50.882;5.350;2022-11-12T11:11:29;19.50;99.90
18753;DHT22;9505;50.882;5.350;2022-11-12T11:13:57;19.60;99.90
18753;DHT22;9505;50.882;5.350;2022-11-12T11:16:53;19.60;99.90
18753;DHT22;9505;50.882;5.350;2022-11-12T11:19:19;19.60;99.90
18753;DHT22;9505;50.882;5.350;2022-11-12T11:21:53;19.90;99.90
18753;DHT22;9505;50.882;5.350;2022-11-12T11:27:33;20.30;99.90
18753;DHT22;9505;50.882;5.350;2022-11-12T11:40:39;21.00;99.90
18753;DHT22;9505;50.882;5.350;2022-11-12T11:48:27;20.70;99.90
18753;DHT22;9505;50.882;5.350;2022-11-12T11:54:04;21.20;99.90
18753;DHT22;9505;50.882;5.350;2022-11-12T11:56:39;21.20;99.90
18753;DHT22;9505;50.882;5.350;2022-11-12T12:02:06;20.90;99.90
18753;DHT22;9505;50.882;5.350;2022-11-12T12:04:44;20.90;99.90
18753;DHT22;9505;50.882;5.350;2022-11-12T12:07:23;20.80;99.90
18753;DHT22;9505;50.882;5.350;2022-11-12T12:10:20;20.70;99.90
18753;DHT22;9505;50.882;5.350;2022-11-12T12:15:37;20.80;99.90
18753;DHT22;9505;50.882;5.350;2022-11-12T12:21:16;21.10;99.90
18753;DHT22;9505;50.882;5.350;2022-11-12T12:23:45;21.20;99.90
18753;DHT22;9505;50.882;5.350;2022-11-12T12:31:39;20.20;99.90
18753;DHT22;9505;50.882;5.350;2022-11-12T12:34:26;20.00;99.90
18753;DHT22;9505;50.882;5.350;2022-11-12T12:37:20;20.20;99.90
18753;DHT22;9505;50.882;5.350;2022-11-12T12:39:54;19.80;99.90
18753;DHT22;9505;50.882;5.350;2022-11-12T12:42:31;19.70;99.90
18753;DHT22;9505;50.882;5.350;2022-11-12T12:45:02;20.10;99.90
18753;DHT22;9505;50.882;5.350;2022-11-12T12:47:40;20.30;99.90
18753;DHT22;9505;50.882;5.350;2022-11-12T12:50:12;20.30;99.90
18753;DHT22;9505;50.882;5.350;2022-11-12T12:53:02;20.30;99.90
18753;DHT22;9505;50.882;5.350;2022-11-12T12:55:39;20.70;99.90
18753;DHT22;9505;50.882;5.350;2022-11-12T12:58:59;21.30;99.90
18753;DHT22;9505;50.882;5.350;2022-11-12T13:06:50;21.60;99.90
18753;DHT22;9505;50.882;5.350;2022-11-12T13:32:53;23.90;99.90
18753;DHT22;9505;50.882;5.350;2022-11-12T13:38:02;24.50;99.90
18753;DHT22;9505;50.882;5.350;2022-11-12T13:43:17;24.70;99.90
18753;DHT22;9505;50.882;5.350;2022-11-12T13:48:49;24.40;99.90
18753;DHT22;9505;50.882;5.350;2022-11-12T13:51:28;24.20;99.90
18753;DHT22;9505;50.882;5.350;2022-11-12T13:53:59;24.00;99.90
18753;DHT22;9505;50.882;5.350;2022-11-12T13:56:28;23.90;99.90
18753;DHT22;9505;50.882;5.350;2022-11-12T13:59:07;24.20;99.90
18753;DHT22;9505;50.882;5.350;2022-11-12T14:01:33;24.10;99.90
18753;DHT22;9505;50.882;5.350;2022-11-12T14:03:59;23.80;99.90
18753;DHT22;9505;50.882;5.350;2022-11-12T14:06:41;23.30;99.90
18753;DHT22;9505;50.882;5.350;2022-11-12T14:15:02;22.00;99.90
18753;DHT22;9505;50.882;5.350;2022-11-12T14:20:22;21.30;99.90
18753;DHT22;9505;50.882;5.350;2022-11-12T14:22:52;20.80;99.90
18753;DHT22;9505;50.882;5.350;2022-11-12T14:25:22;20.30;99.90
18753;DHT22;9505;50.882;5.350;2022-11-12T14:27:54;20.00;99.90
18753;DHT22;9505;50.882;5.350;2022-11-12T14:33:06;19.40;99.90
18753;DHT22;9505;50.882;5.350;2022-11-12T14:35:33;19.00;99.90
18753;DHT22;9505;50.882;5.350;2022-11-12T14:38:03;18.90;99.90
18753;DHT22;9505;50.882;5.350;2022-11-12T14:40:32;18.60;99.90
18753;DHT22;9505;50.882;5.350;2022-11-12T14:43:00;18.40;99.90
18753;DHT22;9505;50.882;5.350;2022-11-12T14:45:26;18.30;99.90
18753;DHT22;9505;50.882;5.350;2022-11-12T14:47:53;18.00;99.90
18753;DHT22;9505;50.882;5.350;2022-11-12T14:50:26;17.40;99.90
18753;DHT22;9505;50.882;5.350;2022-11-12T14:52:59;16.90;99.90
18753;DHT22;9505;50.882;5.350;2022-11-12T14:55:32;16.60;99.90
18753;DHT22;9505;50.882;5.350;2022-11-12T14:57:59;16.40;99.90
18753;DHT22;9505;50.882;5.350;2022-11-12T15:03:00;16.30;99.90
18753;DHT22;9505;50.882;5.350;2022-11-12T15:05:26;16.20;99.90
18753;DHT22;9505;50.882;5.350;2022-11-12T15:10:44;16.10;99.90
18753;DHT22;9505;50.882;5.350;2022-11-12T15:13:13;16.20;99.90
18753;DHT22;9505;50.882;5.350;2022-11-12T15:18:17;16.00;99.90
18753;DHT22;9505;50.882;5.350;2022-11-12T15:20:43;15.90;99.90
18753;DHT22;9505;50.882;5.350;2022-11-12T15:23:16;15.80;99.90
18753;DHT22;9505;50.882;5.350;2022-11-12T15:25:43;15.80;99.90
18753;DHT22;9505;50.882;5.350;2022-11-12T15:28:27;15.70;99.90
18753;DHT22;9505;50.882;5.350;2022-11-12T15:31:20;15.60;99.90
18753;DHT22;9505;50.882;5.350;2022-11-12T15:33:46;15.50;99.90
18753;DHT22;9505;50.882;5.350;2022-11-12T15:36:17;15.30;99.90
18753;DHT22;9505;50.882;5.350;2022-11-12T15:38:48;15.10;99.90
18753;DHT22;9505;50.882;5.350;2022-11-12T15:41:33;14.90;99.90
18753;DHT22;9505;50.882;5.350;2022-11-12T15:43:58;14.50;99.90
18753;DHT22;9505;50.882;5.350;2022-11-12T15:46:24;14.20;99.90
18753;DHT22;9505;50.882;5.350;2022-11-12T15:48:50;13.80;99.90
18753;DHT22;9505;50.882;5.350;2022-11-12T15:51:16;13.60;99.90
18753;DHT22;9505;50.882;5.350;2022-11-12T15:53:41;13.40;99.90
18753;DHT22;9505;50.882;5.350;2022-11-12T15:56:12;13.30;99.90
18753;DHT22;9505;50.882;5.350;2022-11-12T15:58:39;13.10;99.90
18753;DHT22;9505;50.882;5.350;2022-11-12T16:01:05;12.80;99.90
18753;DHT22;9505;50.882;5.350;2022-11-12T16:03:30;12.60;99.90
18753;DHT22;9505;50.882;5.350;2022-11-12T16:05:56;12.30;99.90
18753;DHT22;9505;50.882;5.350;2022-11-12T16:08:22;12.20;99.90
18753;DHT22;9505;50.882;5.350;2022-11-12T16:10:48;12.10;99.90
18753;DHT22;9505;50.882;5.350;2022-11-12T16:13:26;12.00;99.90
18753;DHT22;9505;50.882;5.350;2022-11-12T16:15:52;12.00;99.90
18753;DHT22;9505;50.882;5.350;2022-11-12T16:18:18;11.80;99.90
18753;DHT22;9505;50.882;5.350;2022-11-12T16:20:44;11.70;99.90
18753;DHT22;9505;50.882;5.350;2022-11-12T16:23:09;11.60;99.90
18753;DHT22;9505;50.882;5.350;2022-11-12T16:25:36;11.50;99.90
18753;DHT22;9505;50.882;5.350;2022-11-12T16:28:10;11.40;99.90
18753;DHT22;9505;50.882;5.350;2022-11-12T16:30:37;11.40;99.90
18753;DHT22;9505;50.882;5.350;2022-11-12T16:33:02;11.30;99.90
18753;DHT22;9505;50.882;5.350;2022-11-12T16:35:32;11.20;99.90
18753;DHT22;9505;50.882;5.350;2022-11-12T16:37:58;11.10;99.90
18753;DHT22;9505;50.882;5.350;2022-11-12T16:40:26;11.10;99.90
18753;DHT22;9505;50.882;5.350;2022-11-12T16:42:52;11.00;99.90
18753;DHT22;9505;50.882;5.350;2022-11-12T16:45:20;10.90;99.90
18753;DHT22;9505;50.882;5.350;2022-11-12T16:47:48;10.70;99.90
18753;DHT22;9505;50.882;5.350;2022-11-12T16:50:17;10.70;99.90
18753;DHT22;9505;50.882;5.350;2022-11-12T16:52:43;10.60;99.90
18753;DHT22;9505;50.882;5.350;2022-11-12T16:55:09;10.50;99.90
18753;DHT22;9505;50.882;5.350;2022-11-12T16:57:35;10.30;99.90
18753;DHT22;9505;50.882;5.350;2022-11-12T17:00:01;10.20;99.90
18753;DHT22;9505;50.882;5.350;2022-11-12T17:02:26;10.10;99.90
18753;DHT22;9505;50.882;5.350;2022-11-12T17:04:52;10.00;99.90
18753;DHT22;9505;50.882;5.350;2022-11-12T17:07:18;9.90;99.90
18753;DHT22;9505;50.882;5.350;2022-11-12T17:09:43;10.00;99.90
18753;DHT22;9505;50.882;5.350;2022-11-12T17:12:09;10.00;99.90
18753;DHT22;9505;50.882;5.350;2022-11-12T17:14:34;9.90;99.90
18753;DHT22;9505;50.882;5.350;2022-11-12T17:17:00;9.80;99.90
18753;DHT22;9505;50.882;5.350;2022-11-12T17:19:26;9.80;99.90
18753;DHT22;9505;50.882;5.350;2022-11-12T17:21:51;9.80;99.90
18753;DHT22;9505;50.882;5.350;2022-11-12T17:24:17;9.90;99.90
18753;DHT22;9505;50.882;5.350;2022-11-12T17:26:44;9.80;99.90
18753;DHT22;9505;50.882;5.350;2022-11-12T17:29:09;9.80;99.90
18753;DHT22;9505;50.882;5.350;2022-11-12T17:31:35;9.80;99.90
18753;DHT22;9505;50.882;5.350;2022-11-12T17:34:03;9.70;99.90
18753;DHT22;9505;50.882;5.350;2022-11-12T17:36:29;9.70;99.90
18753;DHT22;9505;50.882;5.350;2022-11-12T17:38:56;9.70;99.90
18753;DHT22;9505;50.882;5.350;2022-11-12T17:41:22;9.70;99.90
18753;DHT22;9505;50.882;5.350;2022-11-12T17:44:01;9.60;99.90
18753;DHT22;9505;50.882;5.350;2022-11-12T17:46:28;9.60;99.90
18753;DHT22;9505;50.882;5.350;2022-11-12T17:48:54;9.60;99.90
18753;DHT22;9505;50.882;5.350;2022-11-12T17:51:22;9.50;99.90
18753;DHT22;9505;50.882;5.350;2022-11-12T17:53:48;9.40;99.90
18753;DHT22;9505;50.882;5.350;2022-11-12T17:56:19;9.30;99.90
18753;DHT22;9505;50.882;5.350;2022-11-12T17:58:45;9.20;99.90
18753;DHT22;9505;50.882;5.350;2022-11-12T18:01:18;9.10;99.90
18753;DHT22;9505;50.882;5.350;2022-11-12T18:03:46;9.10;99.90
18753;DHT22;9505;50.882;5.350;2022-11-12T18:06:16;9.10;99.90
18753;DHT22;9505;50.882;5.350;2022-11-12T18:08:42;9.10;99.90
18753;DHT22;9505;50.882;5.350;2022-11-12T18:11:09;9.00;99.90
18753;DHT22;9505;50.882;5.350;2022-11-12T18:13:35;9.00;99.90
18753;DHT22;9505;50.882;5.350;2022-11-12T18:16:01;9.00;99.90
18753;DHT22;9505;50.882;5.350;2022-11-12T18:18:28;8.90;99.90
18753;DHT22;9505;50.882;5.350;2022-11-12T18:20:54;8.80;99.90